Skip Navigation Linkswww.weather.gov 
NOAA logo - Click to go to the NOAA homepage National Weather Service Forecast Office   NWS logo - Click to go to the NWS homepage    
Pocatello, Idaho
navigation bar decoration      
spacer

Forecast for Pocatello

Printer Friendly Version Printer Friendly Version | Plain Text Version Plain Text Version

Pocatello Terminal Forecast

KPIH 052320Z 0600/0624 22012KT P6SM FEW160
      FM060300 20008KT P6SM FEW160
      FM061800 24011KT P6SM FEW160=
Recent Pocatello Observations
 KPIH 052353Z 24010KT 10SM CLR 09/M09 A3034 AO2 SLP292  T00891094 10100 20044 56008
 KPIH 052253Z 23014KT 10SM CLR 10/M10 A3035 AO2 SLP293  T01001100
 KPIH 052153Z 25013KT 10SM CLR 09/M11 A3035 AO2 SLP296  T00891111
Adjacent Observations
 KIDA 052353Z 21009KT 10SM CLR 07/M10 A3034 AO2 SLP298  T00671100 10078 20017 56006

Webmaster
US Dept of Commerce
National Oceanic and Atmospheric Administration
National Weather Service
Pocatello Weather Forecast Office
1945 Beechcraft Ave
Pocatello, ID 83204

Tel: (208) 233-0834
Recorded Forecast: (208) 233-0137

Disclaimer
Information Quality
Credits
Glossary
Organization
Privacy Policy
Freedom of Information Act
About Us
Career Opportunities